Skamokawa, Washington
Current Conditions -  °F | °C
As of 9:55 PM on Tuesday 25 Nov 2014 (Local Time) from KAST Reporting Station
Overcast Overcast  
Wind Chill: 56°   Ceiling: 300
Heat Index: 56°   Visibility: 9mi
Dew Point: 54°   Wind: 15mph
Humidity: 93%   Direction: 210°SSW
Pressure: 30.24"   Gusts: 24mph
Location:  46.27°N, 123.46°W
Report Text: KAST 260555Z AUTO 21013G21KT 9SM OVC003 13/12 A3024 RMK AO2 SLP240 60000 T01330122 10144 20133 58001
Loading
Personal Weather Stations






























Interactive Weather Map New forecast layout! Learn more

10-Day Weather Forecast

Advertisements
Track Severe Weather on mobile